createdAt,value
2022-11-19T00:01:26.311Z,100426.03
2022-11-19T00:03:53.825Z,100432.34
2022-11-19T00:06:23.953Z,100419.50
2022-11-19T00:08:50.996Z,100426.81
2022-11-19T00:11:41.980Z,100429.50
2022-11-19T00:14:10.730Z,100425.50
2022-11-19T00:16:37.907Z,100424.69
2022-11-19T00:19:05.548Z,100423.25
2022-11-19T00:21:33.058Z,100419.72
2022-11-19T00:24:00.278Z,100419.41
2022-11-19T00:26:27.796Z,100417.28
2022-11-19T00:28:55.395Z,100410.00
2022-11-19T00:31:22.987Z,100418.44
2022-11-19T00:33:50.878Z,100414.50
2022-11-19T00:36:18.241Z,100417.66
2022-11-19T00:38:45.841Z,100427.59
2022-11-19T00:41:13.007Z,100422.25
2022-11-19T00:43:49.660Z,100432.84
2022-11-19T00:46:24.344Z,100418.78
2022-11-19T00:48:53.857Z,100419.66
2022-11-19T00:51:22.512Z,100418.91
2022-11-19T00:53:49.714Z,100425.09
2022-11-19T00:56:18.990Z,100427.00
2022-11-19T00:58:46.780Z,100426.53
2022-11-19T01:01:15.843Z,100421.69
2022-11-19T01:03:45.683Z,100429.13
2022-11-19T01:06:18.897Z,100424.38
2022-11-19T01:08:51.435Z,100427.41
2022-11-19T01:11:24.022Z,100430.97
2022-11-19T01:13:51.578Z,100433.13
2022-11-19T01:16:20.258Z,100430.91
2022-11-19T01:18:48.899Z,100439.63
2022-11-19T01:21:17.754Z,100439.94
2022-11-19T01:23:45.361Z,100439.00
2022-11-19T01:26:13.289Z,100439.97
2022-11-19T01:28:40.750Z,100437.63
2022-11-19T01:31:19.097Z,100436.28
2022-11-19T01:33:46.634Z,100444.72
2022-11-19T01:36:16.255Z,100446.13
2022-11-19T01:38:43.525Z,100449.75
2022-11-19T01:41:10.859Z,100455.31
2022-11-19T01:43:49.887Z,100458.72
2022-11-19T01:46:25.112Z,100457.06
2022-11-19T01:48:57.251Z,100451.19
2022-11-19T01:51:51.462Z,100457.06
2022-11-19T01:54:33.707Z,100462.06
2022-11-19T01:57:04.040Z,100449.13
2022-11-19T01:59:31.580Z,100455.06
2022-11-19T02:01:58.992Z,100461.03
2022-11-19T02:04:27.135Z,100454.84
2022-11-19T02:06:55.338Z,100451.06
2022-11-19T02:09:23.375Z,100458.44
2022-11-19T02:12:09.182Z,100449.38
2022-11-19T02:14:42.280Z,100461.75
2022-11-19T02:17:21.975Z,100461.72
2022-11-19T02:19:49.102Z,100460.81
2022-11-19T02:22:37.485Z,100463.53
2022-11-19T02:25:10.751Z,100458.44
2022-11-19T02:27:56.197Z,100460.44
2022-11-19T02:30:23.889Z,100457.16
2022-11-19T02:33:05.183Z,100454.59
2022-11-19T02:35:56.812Z,100465.47
2022-11-19T02:38:31.077Z,100464.84
2022-11-19T02:41:22.636Z,100458.06
2022-11-19T02:44:13.047Z,100456.78
2022-11-19T02:46:41.019Z,100460.66
2022-11-19T02:49:09.039Z,100462.31
2022-11-19T02:51:36.368Z,100459.28
2022-11-19T02:54:04.972Z,100449.88
2022-11-19T02:56:53.204Z,100456.72
2022-11-19T02:59:54.778Z,100443.56
2022-11-19T03:02:41.400Z,100455.19
2022-11-19T03:05:13.032Z,100452.41
2022-11-19T03:07:40.466Z,100453.28
2022-11-19T03:10:10.542Z,100453.38
2022-11-19T03:12:46.039Z,100453.31
2022-11-19T03:15:55.151Z,100459.34
2022-11-19T03:18:33.299Z,100459.13
2022-11-19T03:21:23.244Z,100465.72
2022-11-19T03:23:58.010Z,100467.38
2022-11-19T03:26:32.613Z,100472.53
2022-11-19T03:29:03.594Z,100466.09
2022-11-19T03:31:31.756Z,100467.88
2022-11-19T03:34:03.003Z,100469.69
2022-11-19T03:36:33.041Z,100473.16
2022-11-19T03:39:02.996Z,100470.66
2022-11-19T03:41:30.876Z,100470.25
2022-11-19T03:44:02.260Z,100471.03
2022-11-19T03:46:30.635Z,100480.81
2022-11-19T03:48:59.671Z,100474.28
2022-11-19T03:51:40.684Z,100481.25
2022-11-19T03:54:08.455Z,100473.88
2022-11-19T03:56:38.393Z,100478.09
2022-11-19T03:59:07.788Z,100479.94
2022-11-19T04:01:36.824Z,100487.47
2022-11-19T04:04:23.500Z,100479.50
2022-11-19T04:06:51.095Z,100482.66
2022-11-19T04:09:18.969Z,100489.44
2022-11-19T04:14:12.608Z,100482.47
2022-11-19T04:16:39.794Z,100488.59
2022-11-19T04:19:07.147Z,100487.84
2022-11-19T04:21:34.443Z,100489.84
2022-11-19T04:24:01.765Z,100492.16
2022-11-19T04:26:29.021Z,100497.78
2022-11-19T04:28:56.235Z,100494.44
2022-11-19T04:31:23.512Z,100496.81
2022-11-19T04:33:50.759Z,100498.25
2022-11-19T04:36:17.923Z,100501.63
2022-11-19T04:38:45.133Z,100507.75
2022-11-19T04:41:12.496Z,100510.16
2022-11-19T04:43:39.688Z,100504.97
2022-11-19T04:46:07.061Z,100506.81
2022-11-19T04:48:34.196Z,100508.16
2022-11-19T04:51:01.470Z,100506.97
2022-11-19T04:53:28.757Z,100511.03
2022-11-19T04:55:56.028Z,100518.03
2022-11-19T04:58:23.254Z,100515.72
2022-11-19T05:00:50.531Z,100522.44
2022-11-19T05:03:17.789Z,100522.59
2022-11-19T05:05:45.550Z,100527.56
2022-11-19T05:08:14.368Z,100530.16
2022-11-19T05:10:43.113Z,100532.22
2022-11-19T05:13:10.469Z,100533.38
2022-11-19T05:15:37.800Z,100538.25
2022-11-19T05:18:05.147Z,100536.94
2022-11-19T05:20:32.353Z,100539.16
2022-11-19T05:22:59.571Z,100537.22
2022-11-19T05:25:26.784Z,100533.53
2022-11-19T05:27:54.075Z,100533.84
2022-11-19T05:30:21.298Z,100538.44
2022-11-19T05:32:48.600Z,100529.44
2022-11-19T05:35:15.847Z,100535.59
2022-11-19T05:37:43.035Z,100534.16
2022-11-19T05:40:10.582Z,100534.97
2022-11-19T05:42:38.142Z,100541.50
2022-11-19T05:45:06.084Z,100530.50
2022-11-19T05:47:33.924Z,100533.53
2022-11-19T05:50:01.113Z,100528.53
2022-11-19T05:52:28.276Z,100526.78
2022-11-19T05:54:55.565Z,100528.38
2022-11-19T05:57:22.972Z,100526.25
2022-11-19T05:59:50.214Z,100528.31
2022-11-19T06:02:17.788Z,100531.22
2022-11-19T06:04:45.520Z,100528.47
2022-11-19T06:07:12.752Z,100529.59
2022-11-19T06:09:40.089Z,100531.06
2022-11-19T06:12:07.539Z,100530.09
2022-11-19T06:14:34.862Z,100520.78
2022-11-19T06:17:02.117Z,100520.91
2022-11-19T06:19:29.439Z,100529.66
2022-11-19T06:21:57.262Z,100534.94
2022-11-19T06:24:24.508Z,100542.47
2022-11-19T06:26:51.754Z,100540.38
2022-11-19T06:29:19.346Z,100541.28
2022-11-19T06:31:46.943Z,100535.28
2022-11-19T06:34:14.480Z,100545.19
2022-11-19T06:36:46.236Z,100550.25
2022-11-19T06:39:16.782Z,100558.22
2022-11-19T06:41:44.201Z,100565.00
2022-11-19T06:44:11.450Z,100569.59
2022-11-19T06:46:38.774Z,100575.09
2022-11-19T06:49:07.028Z,100571.38
2022-11-19T06:51:34.221Z,100570.91
2022-11-19T06:54:01.447Z,100588.78
2022-11-19T06:56:28.645Z,100589.84
2022-11-19T06:58:58.139Z,100579.88
2022-11-19T07:01:25.441Z,100576.53
2022-11-19T07:03:52.752Z,100581.63
2022-11-19T07:06:19.967Z,100580.09
2022-11-19T07:08:47.134Z,100579.56
2022-11-19T07:11:26.414Z,100589.50
2022-11-19T07:13:57.603Z,100586.28
2022-11-19T07:16:26.445Z,100600.94
2022-11-19T07:18:53.679Z,100608.00
2022-11-19T07:21:21.083Z,100610.31
2022-11-19T07:23:48.268Z,100609.03
2022-11-19T07:26:15.557Z,100606.56
2022-11-19T07:28:42.816Z,100608.69
2022-11-19T07:31:10.448Z,100616.63
2022-11-19T07:33:39.346Z,100618.06
2022-11-19T07:36:09.886Z,100613.50
2022-11-19T07:38:38.903Z,100626.28
2022-11-19T07:41:24.813Z,100624.81
2022-11-19T07:43:52.003Z,100623.59
2022-11-19T07:46:19.333Z,100633.06
2022-11-19T07:48:46.732Z,100633.53
2022-11-19T07:51:13.980Z,100632.22
2022-11-19T07:53:42.759Z,100638.25
2022-11-19T07:56:10.049Z,100644.88
2022-11-19T07:58:37.276Z,100650.41
2022-11-19T08:01:26.971Z,100644.13
2022-11-19T08:03:56.793Z,100641.59
2022-11-19T08:06:27.628Z,100664.09
2022-11-19T08:08:58.826Z,100668.31
2022-11-19T08:11:26.065Z,100672.69
2022-11-19T08:13:53.401Z,100670.31
2022-11-19T08:16:40.030Z,100682.16
2022-11-19T08:19:09.669Z,100675.34
2022-11-19T08:21:40.767Z,100679.31
2022-11-19T08:24:09.278Z,100683.81
2022-11-19T08:26:37.201Z,100692.06
2022-11-19T08:29:05.290Z,100695.44
2022-11-19T08:31:32.677Z,100693.03
2022-11-19T08:34:03.702Z,100697.38
2022-11-19T08:36:31.149Z,100698.81
2022-11-19T08:39:00.365Z,100703.88
2022-11-19T08:41:46.832Z,100699.53
2022-11-19T08:44:14.515Z,100714.13
2022-11-19T08:46:43.324Z,100701.88
2022-11-19T08:49:12.078Z,100711.47
2022-11-19T08:51:39.332Z,100717.41
2022-11-19T08:54:06.555Z,100715.63
2022-11-19T08:56:33.780Z,100708.00
2022-11-19T08:59:02.955Z,100717.50
2022-11-19T09:01:30.980Z,100718.16
2022-11-19T09:03:58.674Z,100718.72
2022-11-19T09:06:25.976Z,100715.06
2022-11-19T09:08:53.332Z,100719.06
2022-11-19T09:11:21.527Z,100730.03
2022-11-19T09:13:48.876Z,100724.06
2022-11-19T09:16:16.380Z,100728.44
2022-11-19T09:18:43.799Z,100719.97
2022-11-19T09:21:11.679Z,100725.47
2022-11-19T09:23:39.468Z,100728.19
2022-11-19T09:26:09.204Z,100723.88
2022-11-19T09:28:36.557Z,100716.50
2022-11-19T09:31:10.435Z,100719.78
2022-11-19T09:33:39.158Z,100723.72
2022-11-19T09:36:06.686Z,100729.22
2022-11-19T09:38:36.747Z,100726.19
2022-11-19T09:41:11.484Z,100733.09
2022-11-19T09:44:12.101Z,100735.31
2022-11-19T09:46:51.458Z,100734.78
2022-11-19T09:49:24.508Z,100748.56
2022-11-19T09:51:56.413Z,100739.91
2022-11-19T09:54:23.844Z,100743.84
2022-11-19T09:56:54.596Z,100746.09
2022-11-19T09:59:27.934Z,100751.69
2022-11-19T10:01:55.274Z,100744.50
2022-11-19T10:04:25.375Z,100749.81
2022-11-19T10:06:52.442Z,100742.22
2022-11-19T10:09:39.851Z,100744.97
2022-11-19T10:12:13.120Z,100738.19
2022-11-19T10:14:59.090Z,100740.44
2022-11-19T10:18:01.467Z,100749.59
2022-11-19T10:20:34.524Z,100746.13
2022-11-19T10:23:13.843Z,100747.22
2022-11-19T10:25:44.782Z,100736.22
2022-11-19T10:28:16.335Z,100737.59
2022-11-19T10:30:50.883Z,100740.16
2022-11-19T10:33:37.949Z,100740.00
2022-11-19T10:36:09.190Z,100737.53
2022-11-19T10:38:51.385Z,100739.22
2022-11-19T10:41:27.174Z,100732.28
2022-11-19T10:44:01.991Z,100739.50
2022-11-19T10:46:29.282Z,100725.16
2022-11-19T10:48:58.756Z,100736.94
2022-11-19T10:51:31.158Z,100732.81
2022-11-19T10:53:58.918Z,100731.03
2022-11-19T10:56:44.219Z,100727.22
2022-11-19T10:59:13.849Z,100741.81
2022-11-19T11:01:43.161Z,100743.63
2022-11-19T11:04:25.458Z,100734.75
2022-11-19T11:07:03.748Z,100750.13
2022-11-19T11:09:42.527Z,100746.72
2022-11-19T11:12:34.608Z,100729.75
2022-11-19T11:15:13.313Z,100736.72
2022-11-19T11:17:42.464Z,100740.47
2022-11-19T11:20:18.800Z,100734.34
2022-11-19T11:22:48.786Z,100738.59
2022-11-19T11:25:23.008Z,100736.00
2022-11-19T11:28:08.754Z,100729.69
2022-11-19T11:30:36.012Z,100729.78
2022-11-19T11:33:26.247Z,100727.09
2022-11-19T11:35:53.590Z,100727.06
2022-11-19T11:38:22.792Z,100722.47
2022-11-19T11:44:03.639Z,100727.63
2022-11-19T11:46:44.371Z,100733.94
2022-11-19T11:49:22.095Z,100735.53
2022-11-19T11:52:04.138Z,100720.47
2022-11-19T11:54:31.647Z,100726.09
2022-11-19T11:57:20.043Z,100720.66
2022-11-19T11:59:47.875Z,100712.53
2022-11-19T12:02:21.238Z,100720.00
2022-11-19T12:04:51.697Z,100711.94
2022-11-19T12:07:42.140Z,100709.81
2022-11-19T12:10:38.555Z,100716.94
2022-11-19T12:13:43.912Z,100709.50
2022-11-19T12:16:14.638Z,100710.69
2022-11-19T12:19:00.644Z,100711.78
2022-11-19T12:21:50.560Z,100705.97
2022-11-19T12:24:40.217Z,100702.13
2022-11-19T12:27:47.913Z,100701.75
2022-11-19T12:30:20.159Z,100696.78
2022-11-19T12:33:14.948Z,100694.03
2022-11-19T12:35:49.617Z,100702.47
2022-11-19T12:38:42.481Z,100686.41
2022-11-19T12:41:37.545Z,100691.34
2022-11-19T12:44:20.580Z,100695.50
2022-11-19T12:46:55.727Z,100689.78
2022-11-19T12:49:23.031Z,100692.88
2022-11-19T12:52:09.115Z,100702.16
2022-11-19T12:54:55.318Z,100695.00
2022-11-19T12:57:45.523Z,100693.22
2022-11-19T13:00:18.811Z,100699.19
2022-11-19T13:03:04.207Z,100698.03
2022-11-19T13:05:47.878Z,100695.91
2022-11-19T13:08:30.288Z,100697.00
2022-11-19T13:11:08.594Z,100697.81
2022-11-19T13:13:39.192Z,100692.97
2022-11-19T13:16:15.702Z,100701.03
2022-11-19T13:18:54.640Z,100690.50
2022-11-19T13:21:32.455Z,100683.06
2022-11-19T13:24:32.980Z,100684.22
2022-11-19T13:27:04.160Z,100680.22
2022-11-19T13:29:42.736Z,100685.38
2022-11-19T13:32:20.906Z,100684.16
2022-11-19T13:34:59.743Z,100688.53
2022-11-19T13:37:45.528Z,100683.09
2022-11-19T13:40:26.278Z,100689.38
2022-11-19T13:46:44.588Z,100697.59
2022-11-19T13:49:14.359Z,100703.75
2022-11-19T13:51:48.850Z,100698.88
2022-11-19T13:54:27.944Z,100701.53
2022-11-19T13:56:57.541Z,100699.19
2022-11-19T13:59:31.963Z,100689.78
2022-11-19T14:02:04.232Z,100698.09
2022-11-19T14:04:50.280Z,100700.56
2022-11-19T14:07:33.740Z,100692.28
2022-11-19T14:10:15.810Z,100693.59
2022-11-19T14:12:58.244Z,100701.16
2022-11-19T14:16:08.928Z,100701.75
2022-11-19T14:19:00.433Z,100696.78
2022-11-19T14:21:46.225Z,100701.56
2022-11-19T14:24:44.036Z,100703.69
2022-11-19T14:27:27.910Z,100700.94
2022-11-19T14:30:02.218Z,100701.53
2022-11-19T14:32:47.186Z,100698.78
2022-11-19T14:35:27.188Z,100699.91
2022-11-19T14:38:02.157Z,100697.06
2022-11-19T14:40:31.963Z,100709.25
2022-11-19T14:43:21.084Z,100708.16
2022-11-19T14:46:07.514Z,100711.88
2022-11-19T14:48:38.904Z,100718.06
2022-11-19T14:51:30.808Z,100712.63
2022-11-19T14:54:00.866Z,100717.28
2022-11-19T14:56:28.201Z,100726.28
2022-11-19T14:58:59.866Z,100724.41
2022-11-19T15:01:27.118Z,100724.41
2022-11-19T15:04:00.808Z,100728.91
2022-11-19T15:06:28.684Z,100732.69
2022-11-19T15:08:59.072Z,100729.75
2022-11-19T15:11:55.637Z,100736.75
2022-11-19T15:14:29.175Z,100731.53
2022-11-19T15:16:58.573Z,100733.53
2022-11-19T15:19:30.743Z,100733.19
2022-11-19T15:22:10.731Z,100741.31
2022-11-19T15:24:59.575Z,100747.63
2022-11-19T15:27:47.453Z,100751.22
2022-11-19T15:30:21.142Z,100744.38
2022-11-19T15:33:03.553Z,100754.63
2022-11-19T15:35:39.613Z,100756.06
2022-11-19T15:38:31.407Z,100769.66
2022-11-19T15:41:00.228Z,100753.38
2022-11-19T15:43:31.225Z,100752.81
2022-11-19T15:46:10.255Z,100755.59
2022-11-19T15:48:59.299Z,100758.03
2022-11-19T15:51:26.544Z,100755.19
2022-11-19T15:54:10.830Z,100759.19
2022-11-19T15:56:39.749Z,100747.25
2022-11-19T15:59:08.330Z,100765.47
2022-11-19T16:01:36.064Z,100755.19
2022-11-19T16:04:06.501Z,100749.78
2022-11-19T16:06:33.944Z,100746.22
2022-11-19T16:09:05.878Z,100758.22
2022-11-19T16:11:54.798Z,100768.53
2022-11-19T16:14:45.579Z,100760.75
2022-11-19T16:17:41.587Z,100752.84
2022-11-19T16:20:10.953Z,100754.91
2022-11-19T16:22:44.183Z,100763.16
2022-11-19T16:25:19.942Z,100763.56
2022-11-19T16:27:47.718Z,100765.50
2022-11-19T16:30:19.633Z,100768.91
2022-11-19T16:32:48.287Z,100776.06
2022-11-19T16:35:24.684Z,100778.53
2022-11-19T16:37:53.671Z,100763.88
2022-11-19T16:40:21.328Z,100770.59
2022-11-19T16:42:56.753Z,100775.72
2022-11-19T16:45:28.967Z,100766.97
2022-11-19T16:47:58.427Z,100772.84
2022-11-19T16:50:32.664Z,100777.50
2022-11-19T16:53:00.758Z,100775.56
2022-11-19T16:55:28.941Z,100763.63
2022-11-19T16:57:58.248Z,100771.75
2022-11-19T17:00:30.813Z,100771.69
2022-11-19T17:02:58.262Z,100777.66
2022-11-19T17:05:28.598Z,100773.31
2022-11-19T17:08:08.212Z,100779.59
2022-11-19T17:10:35.763Z,100767.88
2022-11-19T17:13:14.827Z,100776.59
2022-11-19T17:15:43.766Z,100767.00
2022-11-19T17:18:26.640Z,100779.81
2022-11-19T17:21:00.265Z,100773.53
2022-11-19T17:23:31.968Z,100779.16
2022-11-19T17:26:05.028Z,100783.69
2022-11-19T17:28:41.610Z,100782.34
2022-11-19T17:31:21.106Z,100782.00
2022-11-19T17:34:18.195Z,100781.16
2022-11-19T17:36:45.849Z,100789.28
2022-11-19T17:39:14.758Z,100786.56
2022-11-19T17:42:01.861Z,100789.59
2022-11-19T17:44:36.617Z,100794.97
2022-11-19T17:47:07.413Z,100800.75
2022-11-19T17:49:48.310Z,100809.44
2022-11-19T17:52:25.642Z,100813.28
2022-11-19T17:54:55.705Z,100817.41
2022-11-19T17:57:22.985Z,100818.72
2022-11-19T17:59:50.224Z,100824.16
2022-11-19T18:02:19.663Z,100818.72
2022-11-19T18:04:47.680Z,100813.50
2022-11-19T18:07:15.132Z,100828.72
2022-11-19T18:09:42.613Z,100816.66
2022-11-19T18:12:16.624Z,100818.91
2022-11-19T18:14:44.442Z,100819.06
2022-11-19T18:17:13.079Z,100818.03
2022-11-19T18:19:40.819Z,100818.66
2022-11-19T18:22:16.910Z,100817.97
2022-11-19T18:24:45.862Z,100821.97
2022-11-19T18:27:13.185Z,100820.59
2022-11-19T18:29:40.614Z,100822.31
2022-11-19T18:32:10.970Z,100813.56
2022-11-19T18:34:38.188Z,100814.03
2022-11-19T18:37:05.358Z,100813.97
2022-11-19T18:39:32.660Z,100816.41
2022-11-19T18:41:59.984Z,100820.81
2022-11-19T18:44:33.398Z,100827.19
2022-11-19T18:47:05.388Z,100817.22
2022-11-19T18:49:35.969Z,100828.38
2022-11-19T18:52:05.316Z,100821.88
2022-11-19T18:54:32.683Z,100816.91
2022-11-19T18:57:00.284Z,100815.25
2022-11-19T18:59:27.633Z,100814.63
2022-11-19T19:01:55.787Z,100821.00
2022-11-19T19:04:23.966Z,100821.47
2022-11-19T19:06:51.324Z,100818.63
2022-11-19T19:09:20.447Z,100826.38
2022-11-19T19:12:13.361Z,100829.38
2022-11-19T19:14:47.060Z,100830.09
2022-11-19T19:17:15.463Z,100831.56
2022-11-19T19:19:42.667Z,100834.91
2022-11-19T19:22:10.297Z,100836.59
2022-11-19T19:24:37.645Z,100842.00
2022-11-19T19:27:05.380Z,100837.66
2022-11-19T19:29:32.690Z,100844.88
2022-11-19T19:32:00.081Z,100841.13
2022-11-19T19:34:28.493Z,100846.16
2022-11-19T19:36:55.895Z,100845.94
2022-11-19T19:39:23.296Z,100851.75
2022-11-19T19:41:51.032Z,100850.56
2022-11-19T19:44:18.385Z,100846.31
2022-11-19T19:46:48.556Z,100859.69
2022-11-19T19:49:15.724Z,100855.81
2022-11-19T19:51:42.834Z,100856.16
2022-11-19T19:54:10.052Z,100858.56
2022-11-19T19:56:37.316Z,100855.81
2022-11-19T19:59:04.618Z,100858.47
2022-11-19T20:01:34.154Z,100851.97
2022-11-19T20:04:07.370Z,100851.72
2022-11-19T20:06:37.514Z,100854.72
2022-11-19T20:09:08.795Z,100855.78
2022-11-19T20:11:38.112Z,100864.75
2022-11-19T20:14:06.378Z,100865.88
2022-11-19T20:16:34.176Z,100865.38
2022-11-19T20:19:02.008Z,100864.91
2022-11-19T20:21:36.097Z,100869.84
2022-11-19T20:24:08.776Z,100866.81
2022-11-19T20:26:39.730Z,100864.31
2022-11-19T20:29:07.181Z,100866.47
2022-11-19T20:31:34.612Z,100877.69
2022-11-19T20:34:03.571Z,100873.69
2022-11-19T20:36:33.245Z,100868.56
2022-11-19T20:39:00.945Z,100871.34
2022-11-19T20:41:48.904Z,100867.78
2022-11-19T20:44:20.933Z,100874.44
2022-11-19T20:46:51.036Z,100883.44
2022-11-19T20:49:19.747Z,100884.00
2022-11-19T20:51:48.635Z,100880.59
2022-11-19T20:54:16.236Z,100884.03
2022-11-19T20:56:43.606Z,100886.25
2022-11-19T20:59:12.208Z,100886.84
2022-11-19T21:01:39.736Z,100882.06
2022-11-19T21:04:07.464Z,100876.09
2022-11-19T21:06:34.861Z,100872.56
2022-11-19T21:09:02.218Z,100880.75
2022-11-19T21:11:29.586Z,100872.44
2022-11-19T21:13:57.105Z,100870.91
2022-11-19T21:16:25.355Z,100874.38
2022-11-19T21:18:52.647Z,100872.31
2022-11-19T21:21:21.871Z,100875.34
2022-11-19T21:23:49.071Z,100874.38
2022-11-19T21:26:21.141Z,100870.59
2022-11-19T21:28:54.038Z,100870.72
2022-11-19T21:31:41.401Z,100884.63
2022-11-19T21:34:20.392Z,100876.03
2022-11-19T21:36:48.515Z,100873.69
2022-11-19T21:39:17.149Z,100873.69
2022-11-19T21:41:44.845Z,100883.63
2022-11-19T21:44:15.417Z,100885.13
2022-11-19T21:46:47.023Z,100890.34
2022-11-19T21:49:14.276Z,100883.59
2022-11-19T21:51:41.634Z,100889.69
2022-11-19T21:54:08.914Z,100888.91
2022-11-19T21:56:38.872Z,100886.44
2022-11-19T21:59:07.311Z,100893.25
2022-11-19T22:01:34.922Z,100886.34
2022-11-19T22:04:02.537Z,100887.69
2022-11-19T22:06:31.178Z,100883.31
2022-11-19T22:08:58.388Z,100879.31
2022-11-19T22:11:28.497Z,100882.06
2022-11-19T22:14:02.744Z,100881.81
2022-11-19T22:16:31.389Z,100879.41
2022-11-19T22:18:58.821Z,100879.78
2022-11-19T22:21:29.437Z,100873.41
2022-11-19T22:23:56.885Z,100879.66
2022-11-19T22:26:24.438Z,100881.22
2022-11-19T22:28:51.720Z,100876.66
2022-11-19T22:31:18.967Z,100879.91
2022-11-19T22:33:49.707Z,100877.22
2022-11-19T22:36:18.315Z,100878.50
2022-11-19T22:38:45.731Z,100865.78
2022-11-19T22:41:15.828Z,100869.66
2022-11-19T22:43:43.278Z,100867.84
2022-11-19T22:46:11.530Z,100866.25
2022-11-19T22:48:39.083Z,100868.28
2022-11-19T22:51:08.653Z,100864.94
2022-11-19T22:53:36.656Z,100876.34
2022-11-19T22:56:06.057Z,100866.06
2022-11-19T22:58:34.119Z,100874.09
2022-11-19T23:01:01.548Z,100877.59
2022-11-19T23:03:29.060Z,100875.44
2022-11-19T23:05:59.090Z,100874.91
2022-11-19T23:08:26.427Z,100866.06
2022-11-19T23:11:04.864Z,100873.84
2022-11-19T23:13:34.796Z,100881.16
2022-11-19T23:16:07.763Z,100883.44
2022-11-19T23:18:38.311Z,100893.72
2022-11-19T23:21:07.056Z,100886.97
2022-11-19T23:23:34.742Z,100896.59
2022-11-19T23:26:03.383Z,100885.16
2022-11-19T23:28:31.604Z,100883.56
2022-11-19T23:31:07.085Z,100882.81
2022-11-19T23:33:34.420Z,100889.09
2022-11-19T23:36:05.875Z,100896.34
2022-11-19T23:38:34.755Z,100889.25
2022-11-19T23:41:03.117Z,100894.59
2022-11-19T23:43:30.733Z,100891.66
2022-11-19T23:46:08.888Z,100889.63
2022-11-19T23:48:37.139Z,100885.81
2022-11-19T23:51:12.888Z,100887.84
2022-11-19T23:53:40.634Z,100886.38
2022-11-19T23:56:08.792Z,100877.34
2022-11-19T23:58:36.788Z,100891.09
